sensor_id;sensor_type;location;lat;lon;timestamp;pressure;altitude;pressure_sealevel;temperature;humidity
15444;BME280;7822;48.146;11.576;2023-12-28T00:00:27;95347.91;;;15.23;61.84
15444;BME280;7822;48.146;11.576;2023-12-28T00:02:55;95341.84;;;15.23;61.90
15444;BME280;7822;48.146;11.576;2023-12-28T00:05:23;95343.50;;;15.24;61.99
15444;BME280;7822;48.146;11.576;2023-12-28T00:07:50;95342.66;;;15.23;61.85
15444;BME280;7822;48.146;11.576;2023-12-28T00:10:26;95348.06;;;15.22;62.00
15444;BME280;7822;48.146;11.576;2023-12-28T00:12:53;95349.69;;;15.23;61.99
15444;BME280;7822;48.146;11.576;2023-12-28T00:15:21;95344.31;;;15.24;62.05
15444;BME280;7822;48.146;11.576;2023-12-28T00:17:49;95341.00;;;15.22;61.80
15444;BME280;7822;48.146;11.576;2023-12-28T00:20:16;95342.81;;;15.22;62.02
15444;BME280;7822;48.146;11.576;2023-12-28T00:22:44;95341.00;;;15.22;61.94
15444;BME280;7822;48.146;11.576;2023-12-28T00:25:11;95345.44;;;15.22;62.25
15444;BME280;7822;48.146;11.576;2023-12-28T00:27:40;95339.38;;;15.21;61.99
15444;BME280;7822;48.146;11.576;2023-12-28T00:30:08;95337.59;;;15.22;62.05
15444;BME280;7822;48.146;11.576;2023-12-28T00:32:36;95328.09;;;15.21;62.20
15444;BME280;7822;48.146;11.576;2023-12-28T00:35:04;95328.94;;;15.21;61.98
15444;BME280;7822;48.146;11.576;2023-12-28T00:37:31;95328.09;;;15.21;62.00
15444;BME280;7822;48.146;11.576;2023-12-28T00:39:59;95322.88;;;15.21;62.06
15444;BME280;7822;48.146;11.576;2023-12-28T00:42:27;95328.09;;;15.21;61.96
15444;BME280;7822;48.146;11.576;2023-12-28T00:44:55;95326.47;;;15.20;62.13
15444;BME280;7822;48.146;11.576;2023-12-28T00:47:23;95325.66;;;15.19;62.15
15444;BME280;7822;48.146;11.576;2023-12-28T00:49:51;95332.50;;;15.20;62.07
15444;BME280;7822;48.146;11.576;2023-12-28T00:52:18;95338.56;;;15.21;61.86
15444;BME280;7822;48.146;11.576;2023-12-28T00:54:46;95346.41;;;15.21;61.86
15444;BME280;7822;48.146;11.576;2023-12-28T00:57:13;95334.31;;;15.20;61.99
15444;BME280;7822;48.146;11.576;2023-12-28T00:59:41;95340.34;;;15.20;62.03
15444;BME280;7822;48.146;11.576;2023-12-28T01:02:11;95337.72;;;15.20;62.01
15444;BME280;7822;48.146;11.576;2023-12-28T01:04:38;95336.94;;;15.20;62.08
15444;BME280;7822;48.146;11.576;2023-12-28T01:07:06;95341.16;;;15.21;62.04
15444;BME280;7822;48.146;11.576;2023-12-28T01:09:34;95336.94;;;15.20;62.22
15444;BME280;7822;48.146;11.576;2023-12-28T01:12:01;95336.94;;;15.20;62.08
15444;BME280;7822;48.146;11.576;2023-12-28T01:14:29;95343.94;;;15.19;62.29
15444;BME280;7822;48.146;11.576;2023-12-28T01:16:56;95349.31;;;15.18;62.21
15444;BME280;7822;48.146;11.576;2023-12-28T01:19:25;95354.41;;;15.19;62.02
15444;BME280;7822;48.146;11.576;2023-12-28T01:21:53;95359.63;;;15.19;62.27
15444;BME280;7822;48.146;11.576;2023-12-28T01:24:21;95359.63;;;15.19;62.16
15444;BME280;7822;48.146;11.576;2023-12-28T01:26:48;95363.19;;;15.18;62.22
15444;BME280;7822;48.146;11.576;2023-12-28T01:29:16;95365.81;;;15.18;62.14
15444;BME280;7822;48.146;11.576;2023-12-28T01:31:43;95376.13;;;15.20;62.22
15444;BME280;7822;48.146;11.576;2023-12-28T01:34:11;95379.69;;;15.19;62.20
15444;BME280;7822;48.146;11.576;2023-12-28T01:36:41;95377.91;;;15.19;62.09
15444;BME280;7822;48.146;11.576;2023-12-28T01:39:10;95386.59;;;15.20;62.17
15444;BME280;7822;48.146;11.576;2023-12-28T01:41:39;95378.75;;;15.20;62.17
15444;BME280;7822;48.146;11.576;2023-12-28T01:44:06;95376.94;;;15.20;62.35
15444;BME280;7822;48.146;11.576;2023-12-28T01:46:34;95385.75;;;15.19;62.27
15444;BME280;7822;48.146;11.576;2023-12-28T01:49:01;95377.91;;;15.19;62.36
15444;BME280;7822;48.146;11.576;2023-12-28T01:51:29;95377.91;;;15.19;62.30
15444;BME280;7822;48.146;11.576;2023-12-28T01:53:59;95389.19;;;15.20;62.29
15444;BME280;7822;48.146;11.576;2023-12-28T01:56:27;95389.19;;;15.20;62.45
15444;BME280;7822;48.146;11.576;2023-12-28T01:58:54;95384.09;;;15.18;62.06
15444;BME280;7822;48.146;11.576;2023-12-28T02:01:22;95377.91;;;15.19;62.23
15444;BME280;7822;48.146;11.576;2023-12-28T02:03:52;95376.13;;;15.20;62.33
15444;BME280;7822;48.146;11.576;2023-12-28T02:06:22;95378.75;;;15.20;62.32
15444;BME280;7822;48.146;11.576;2023-12-28T02:08:50;95372.84;;;15.18;62.27
15444;BME280;7822;48.146;11.576;2023-12-28T02:11:19;95371.84;;;15.19;62.21
15444;BME280;7822;48.146;11.576;2023-12-28T02:13:47;95382.31;;;15.19;62.37
15444;BME280;7822;48.146;11.576;2023-12-28T02:16:15;95386.72;;;15.18;62.17
15444;BME280;7822;48.146;11.576;2023-12-28T02:18:45;95379.69;;;15.19;62.12
15444;BME280;7822;48.146;11.576;2023-12-28T02:21:15;95377.25;;;15.17;62.25
15444;BME280;7822;48.146;11.576;2023-12-28T02:23:46;95381.47;;;15.18;62.32
15444;BME280;7822;48.146;11.576;2023-12-28T02:26:14;95380.69;;;15.18;62.28
15444;BME280;7822;48.146;11.576;2023-12-28T02:28:42;95387.69;;;15.17;62.17
15444;BME280;7822;48.146;11.576;2023-12-28T02:31:10;95383.28;;;15.18;62.29
15444;BME280;7822;48.146;11.576;2023-12-28T02:33:43;95383.28;;;15.18;62.22
15444;BME280;7822;48.146;11.576;2023-12-28T02:36:14;95375.47;;;15.18;62.45
15444;BME280;7822;48.146;11.576;2023-12-28T02:38:44;95371.19;;;15.17;62.32
15444;BME280;7822;48.146;11.576;2023-12-28T02:41:14;95378.06;;;15.18;62.52
15444;BME280;7822;48.146;11.576;2023-12-28T02:43:42;95379.84;;;15.17;62.19
15444;BME280;7822;48.146;11.576;2023-12-28T02:46:10;95380.81;;;15.16;62.36
15444;BME280;7822;48.146;11.576;2023-12-28T02:48:38;95384.25;;;15.17;62.48
15444;BME280;7822;48.146;11.576;2023-12-28T02:51:06;95388.66;;;15.16;62.36
15444;BME280;7822;48.146;11.576;2023-12-28T02:53:33;95383.41;;;15.16;62.39
15444;BME280;7822;48.146;11.576;2023-12-28T02:56:01;95385.09;;;15.17;62.48
15444;BME280;7822;48.146;11.576;2023-12-28T02:58:30;95380.81;;;15.16;62.38
15444;BME280;7822;48.146;11.576;2023-12-28T03:00:57;95390.44;;;15.16;62.43
15444;BME280;7822;48.146;11.576;2023-12-28T03:03:25;95390.44;;;15.16;62.33
15444;BME280;7822;48.146;11.576;2023-12-28T03:05:53;95387.03;;;15.15;62.38
15444;BME280;7822;48.146;11.576;2023-12-28T03:08:20;95384.41;;;15.15;62.27
15444;BME280;7822;48.146;11.576;2023-12-28T03:10:48;95386.03;;;15.16;62.30
15444;BME280;7822;48.146;11.576;2023-12-28T03:13:15;95384.41;;;15.15;62.15
15444;BME280;7822;48.146;11.576;2023-12-28T03:15:44;95381.78;;;15.15;62.25
15444;BME280;7822;48.146;11.576;2023-12-28T03:18:11;95383.56;;;15.15;62.35
15444;BME280;7822;48.146;11.576;2023-12-28T03:20:39;95381.78;;;15.15;62.41
15444;BME280;7822;48.146;11.576;2023-12-28T03:23:07;95388.81;;;15.15;62.19
15444;BME280;7822;48.146;11.576;2023-12-28T03:25:34;95392.38;;;15.14;62.21
15444;BME280;7822;48.146;11.576;2023-12-28T03:28:02;95378.34;;;15.15;62.18
15444;BME280;7822;48.146;11.576;2023-12-28T03:30:30;95381.78;;;15.15;62.19
15444;BME280;7822;48.146;11.576;2023-12-28T03:32:59;95388.66;;;15.16;62.32
15444;BME280;7822;48.146;11.576;2023-12-28T03:35:26;95382.59;;;15.16;62.20
15444;BME280;7822;48.146;11.576;2023-12-28T03:37:54;95385.22;;;15.16;62.21
15444;BME280;7822;48.146;11.576;2023-12-28T03:40:22;95381.78;;;15.15;62.30
15444;BME280;7822;48.146;11.576;2023-12-28T03:42:49;95380.97;;;15.15;62.22
15444;BME280;7822;48.146;11.576;2023-12-28T03:45:17;95386.19;;;15.15;62.14
15444;BME280;7822;48.146;11.576;2023-12-28T03:47:44;95380.97;;;15.15;62.35
15444;BME280;7822;48.146;11.576;2023-12-28T03:50:13;95383.56;;;15.15;62.17
15444;BME280;7822;48.146;11.576;2023-12-28T03:52:41;95382.75;;;15.14;62.29
15444;BME280;7822;48.146;11.576;2023-12-28T03:55:09;95380.97;;;15.15;62.19
15444;BME280;7822;48.146;11.576;2023-12-28T03:57:37;95381.78;;;15.15;62.14
15444;BME280;7822;48.146;11.576;2023-12-28T04:00:05;95380.13;;;15.14;62.17
15444;BME280;7822;48.146;11.576;2023-12-28T04:02:33;95382.75;;;15.14;62.25
15444;BME280;7822;48.146;11.576;2023-12-28T04:05:01;95395.81;;;15.14;62.16
15444;BME280;7822;48.146;11.576;2023-12-28T04:07:30;95395.81;;;15.14;61.91
15444;BME280;7822;48.146;11.576;2023-12-28T04:09:57;95401.03;;;15.14;62.17
15444;BME280;7822;48.146;11.576;2023-12-28T04:12:25;95401.03;;;15.14;62.17
15444;BME280;7822;48.146;11.576;2023-12-28T04:14:54;95399.25;;;15.15;61.96
15444;BME280;7822;48.146;11.576;2023-12-28T04:17:22;95407.25;;;15.13;62.05
15444;BME280;7822;48.146;11.576;2023-12-28T04:19:49;95402.81;;;15.14;62.19
15444;BME280;7822;48.146;11.576;2023-12-28T04:22:17;95406.28;;;15.14;62.06
15444;BME280;7822;48.146;11.576;2023-12-28T04:24:46;95399.41;;;15.13;62.15
15444;BME280;7822;48.146;11.576;2023-12-28T04:27:13;95402.03;;;15.13;62.19
15444;BME280;7822;48.146;11.576;2023-12-28T04:29:41;95404.63;;;15.13;62.13
15444;BME280;7822;48.146;11.576;2023-12-28T04:32:08;95402.97;;;15.12;62.17
15444;BME280;7822;48.146;11.576;2023-12-28T04:34:36;95401.19;;;15.13;62.11
15444;BME280;7822;48.146;11.576;2023-12-28T04:37:04;95394.31;;;15.12;62.12
15444;BME280;7822;48.146;11.576;2023-12-28T04:39:31;95402.97;;;15.12;62.20
15444;BME280;7822;48.146;11.576;2023-12-28T04:42:00;95402.16;;;15.12;62.07
15444;BME280;7822;48.146;11.576;2023-12-28T04:44:28;95400.38;;;15.12;62.25
15444;BME280;7822;48.146;11.576;2023-12-28T04:46:55;95399.53;;;15.12;62.43
15444;BME280;7822;48.146;11.576;2023-12-28T04:49:23;95394.31;;;15.12;62.07
15444;BME280;7822;48.146;11.576;2023-12-28T04:51:50;95398.72;;;15.11;62.14
15444;BME280;7822;48.146;11.576;2023-12-28T04:54:18;95404.75;;;15.12;62.18
15444;BME280;7822;48.146;11.576;2023-12-28T04:56:46;95405.75;;;15.11;62.17
15444;BME280;7822;48.146;11.576;2023-12-28T04:59:15;95406.53;;;15.11;62.25
15444;BME280;7822;48.146;11.576;2023-12-28T05:01:42;95404.75;;;15.12;62.22
15444;BME280;7822;48.146;11.576;2023-12-28T05:04:10;95408.22;;;15.12;62.16
15444;BME280;7822;48.146;11.576;2023-12-28T05:06:43;95403.13;;;15.11;62.20
15444;BME280;7822;48.146;11.576;2023-12-28T05:09:10;95406.53;;;15.11;62.01
15444;BME280;7822;48.146;11.576;2023-12-28T05:11:38;95400.38;;;15.12;62.11
15444;BME280;7822;48.146;11.576;2023-12-28T05:14:05;95410.81;;;15.12;62.12
15444;BME280;7822;48.146;11.576;2023-12-28T05:16:37;95416.03;;;15.12;62.26
15444;BME280;7822;48.146;11.576;2023-12-28T05:19:05;95415.22;;;15.12;62.13
15444;BME280;7822;48.146;11.576;2023-12-28T05:21:33;95421.28;;;15.12;61.98
15444;BME280;7822;48.146;11.576;2023-12-28T05:24:00;95414.25;;;15.13;62.13
15444;BME280;7822;48.146;11.576;2023-12-28T05:26:28;95411.66;;;15.13;62.10
15444;BME280;7822;48.146;11.576;2023-12-28T05:28:55;95416.72;;;15.14;62.23
15444;BME280;7822;48.146;11.576;2023-12-28T05:31:23;95419.50;;;15.13;62.16
15444;BME280;7822;48.146;11.576;2023-12-28T05:33:52;95430.78;;;15.13;62.05
15444;BME280;7822;48.146;11.576;2023-12-28T05:36:20;95425.53;;;15.13;62.16
15444;BME280;7822;48.146;11.576;2023-12-28T05:38:47;95429.94;;;15.13;62.15
15444;BME280;7822;48.146;11.576;2023-12-28T05:41:15;95428.16;;;15.13;62.19
15444;BME280;7822;48.146;11.576;2023-12-28T05:43:42;95427.31;;;15.13;62.09
15444;BME280;7822;48.146;11.576;2023-12-28T05:46:10;95421.13;;;15.14;62.07
15444;BME280;7822;48.146;11.576;2023-12-28T05:48:37;95424.72;;;15.13;62.12
15444;BME280;7822;48.146;11.576;2023-12-28T05:51:06;95422.09;;;15.13;62.22
15444;BME280;7822;48.146;11.576;2023-12-28T05:53:34;95422.94;;;15.13;62.24
15444;BME280;7822;48.146;11.576;2023-12-28T05:56:01;95420.44;;;15.12;62.15
15444;BME280;7822;48.146;11.576;2023-12-28T05:58:30;95423.06;;;15.12;62.25
15444;BME280;7822;48.146;11.576;2023-12-28T06:00:57;95424.72;;;15.13;62.21
15444;BME280;7822;48.146;11.576;2023-12-28T06:03:25;95429.94;;;15.13;62.29
15444;BME280;7822;48.146;11.576;2023-12-28T06:05:54;95424.03;;;15.11;62.29
15444;BME280;7822;48.146;11.576;2023-12-28T06:08:24;95433.50;;;15.12;62.30
15444;BME280;7822;48.146;11.576;2023-12-28T06:10:53;95425.66;;;15.12;62.32
15444;BME280;7822;48.146;11.576;2023-12-28T06:13:21;95427.44;;;15.11;62.29
15444;BME280;7822;48.146;11.576;2023-12-28T06:15:48;95425.81;;;15.10;62.24
15444;BME280;7822;48.146;11.576;2023-12-28T06:18:16;95424.03;;;15.11;62.20
15444;BME280;7822;48.146;11.576;2023-12-28T06:20:44;95428.28;;;15.12;62.27
15444;BME280;7822;48.146;11.576;2023-12-28T06:23:11;95428.44;;;15.10;62.42
15444;BME280;7822;48.146;11.576;2023-12-28T06:25:40;95424.84;;;15.11;62.13
15444;BME280;7822;48.146;11.576;2023-12-28T06:28:08;95427.59;;;15.10;62.21
15444;BME280;7822;48.146;11.576;2023-12-28T06:30:35;95425.00;;;15.10;62.16
15444;BME280;7822;48.146;11.576;2023-12-28T06:33:03;95420.59;;;15.10;62.21
15444;BME280;7822;48.146;11.576;2023-12-28T06:35:31;95431.88;;;15.11;62.35
15444;BME280;7822;48.146;11.576;2023-12-28T06:37:59;95425.00;;;15.10;62.35
15444;BME280;7822;48.146;11.576;2023-12-28T06:40:26;95433.66;;;15.10;62.34
15444;BME280;7822;48.146;11.576;2023-12-28T06:42:55;95432.84;;;15.10;62.32
15444;BME280;7822;48.146;11.576;2023-12-28T06:45:23;95435.44;;;15.10;62.12
15444;BME280;7822;48.146;11.576;2023-12-28T06:47:54;95435.44;;;15.10;62.34
15444;BME280;7822;48.146;11.576;2023-12-28T06:50:22;95429.38;;;15.09;62.14
15444;BME280;7822;48.146;11.576;2023-12-28T06:52:50;95437.22;;;15.09;62.22
15444;BME280;7822;48.146;11.576;2023-12-28T06:55:17;95431.03;;;15.10;62.33
15444;BME280;7822;48.146;11.576;2023-12-28T06:57:45;95429.38;;;15.09;62.31
15444;BME280;7822;48.146;11.576;2023-12-28T07:00:14;95432.00;;;15.09;62.21
15444;BME280;7822;48.146;11.576;2023-12-28T07:02:42;95429.38;;;15.09;62.12
15444;BME280;7822;48.146;11.576;2023-12-28T07:05:09;95433.81;;;15.09;62.48
15444;BME280;7822;48.146;11.576;2023-12-28T07:07:38;95429.38;;;15.09;62.36
15444;BME280;7822;48.146;11.576;2023-12-28T07:10:06;95437.22;;;15.09;62.34
15444;BME280;7822;48.146;11.576;2023-12-28T07:12:34;95433.66;;;15.10;62.52
15444;BME280;7822;48.146;11.576;2023-12-28T07:15:01;95432.00;;;15.09;62.19
15444;BME280;7822;48.146;11.576;2023-12-28T07:17:31;95437.22;;;15.09;62.30
15444;BME280;7822;48.146;11.576;2023-12-28T07:19:58;95432.00;;;15.09;62.30
15444;BME280;7822;48.146;11.576;2023-12-28T07:22:26;95430.22;;;15.10;62.33
15444;BME280;7822;48.146;11.576;2023-12-28T07:24:54;95429.38;;;15.09;62.33
15444;BME280;7822;48.146;11.576;2023-12-28T07:27:22;95425.97;;;15.09;62.33
15444;BME280;7822;48.146;11.576;2023-12-28T07:29:49;95426.78;;;15.09;62.34
15444;BME280;7822;48.146;11.576;2023-12-28T07:32:17;95424.16;;;15.09;62.19
15444;BME280;7822;48.146;11.576;2023-12-28T07:34:47;95421.53;;;15.09;62.24
15444;BME280;7822;48.146;11.576;2023-12-28T07:37:15;95430.22;;;15.10;62.25
15444;BME280;7822;48.146;11.576;2023-12-28T07:39:42;95431.19;;;15.09;62.19
15444;BME280;7822;48.146;11.576;2023-12-28T07:42:10;95432.97;;;15.08;62.03
15444;BME280;7822;48.146;11.576;2023-12-28T07:44:38;95432.97;;;15.08;62.01
15444;BME280;7822;48.146;11.576;2023-12-28T07:47:05;95422.53;;;15.08;62.11
15444;BME280;7822;48.146;11.576;2023-12-28T07:49:35;95427.75;;;15.08;62.24
15444;BME280;7822;48.146;11.576;2023-12-28T07:52:04;95436.56;;;15.07;61.98
15444;BME280;7822;48.146;11.576;2023-12-28T07:54:32;95439.16;;;15.07;62.26
15444;BME280;7822;48.146;11.576;2023-12-28T07:57:00;95437.38;;;15.08;62.31
15444;BME280;7822;48.146;11.576;2023-12-28T07:59:27;95448.66;;;15.08;62.28
15444;BME280;7822;48.146;11.576;2023-12-28T08:01:55;95434.94;;;15.06;62.16
15444;BME280;7822;48.146;11.576;2023-12-28T08:04:22;95436.56;;;15.07;61.88
15444;BME280;7822;48.146;11.576;2023-12-28T08:06:50;95447.00;;;15.07;62.07
15444;BME280;7822;48.146;11.576;2023-12-28T08:09:19;95442.59;;;15.08;62.26
15444;BME280;7822;48.146;11.576;2023-12-28T08:11:46;95455.66;;;15.08;62.23
15444;BME280;7822;48.146;11.576;2023-12-28T08:14:14;95460.06;;;15.07;62.18
15444;BME280;7822;48.146;11.576;2023-12-28T08:16:41;95461.06;;;15.06;62.05
15444;BME280;7822;48.146;11.576;2023-12-28T08:19:09;95468.72;;;15.08;62.29
15444;BME280;7822;48.146;11.576;2023-12-28T08:21:37;95461.06;;;15.06;62.17
15444;BME280;7822;48.146;11.576;2023-12-28T08:24:04;95459.28;;;15.07;62.15
15444;BME280;7822;48.146;11.576;2023-12-28T08:26:33;95462.84;;;15.06;62.22
15444;BME280;7822;48.146;11.576;2023-12-28T08:29:01;95458.28;;;15.08;62.10
15444;BME280;7822;48.146;11.576;2023-12-28T08:31:29;95465.28;;;15.07;62.16
15444;BME280;7822;48.146;11.576;2023-12-28T08:33:57;95462.84;;;15.06;62.23
15444;BME280;7822;48.146;11.576;2023-12-28T08:36:24;95468.88;;;15.06;62.09
15444;BME280;7822;48.146;11.576;2023-12-28T08:38:52;95474.94;;;15.07;62.17
15444;BME280;7822;48.146;11.576;2023-12-28T08:41:20;95473.97;;;15.08;62.33
15444;BME280;7822;48.146;11.576;2023-12-28T08:43:49;95472.47;;;15.05;62.22
15444;BME280;7822;48.146;11.576;2023-12-28T08:46:16;95474.13;;;15.06;62.23
15444;BME280;7822;48.146;11.576;2023-12-28T08:48:44;95470.50;;;15.07;62.14
15444;BME280;7822;48.146;11.576;2023-12-28T08:51:11;95467.91;;;15.07;62.09
15444;BME280;7822;48.146;11.576;2023-12-28T08:53:41;95468.06;;;15.06;62.24
15444;BME280;7822;48.146;11.576;2023-12-28T08:56:19;95475.75;;;15.07;62.34
15444;BME280;7822;48.146;11.576;2023-12-28T08:58:47;95470.50;;;15.07;62.22
15444;BME280;7822;48.146;11.576;2023-12-28T09:01:19;95470.50;;;15.07;62.13
15444;BME280;7822;48.146;11.576;2023-12-28T09:03:48;95470.50;;;15.07;62.26
15444;BME280;7822;48.146;11.576;2023-12-28T09:06:16;95475.75;;;15.07;62.30
15444;BME280;7822;48.146;11.576;2023-12-28T09:08:44;95469.84;;;15.05;62.01
15444;BME280;7822;48.146;11.576;2023-12-28T09:11:13;95482.78;;;15.07;61.99
15444;BME280;7822;48.146;11.576;2023-12-28T09:13:41;95481.94;;;15.06;62.33
15444;BME280;7822;48.146;11.576;2023-12-28T09:16:09;95480.97;;;15.07;62.21
15444;BME280;7822;48.146;11.576;2023-12-28T09:18:38;95480.97;;;15.07;62.22
15444;BME280;7822;48.146;11.576;2023-12-28T09:21:07;95479.19;;;15.08;62.33
15444;BME280;7822;48.146;11.576;2023-12-28T09:23:34;95473.13;;;15.07;62.09
15444;BME280;7822;48.146;11.576;2023-12-28T09:26:03;95482.78;;;15.07;62.20
15444;BME280;7822;48.146;11.576;2023-12-28T09:28:30;95486.19;;;15.07;62.11
15444;BME280;7822;48.146;11.576;2023-12-28T09:30:58;95480.97;;;15.07;62.31
15444;BME280;7822;48.146;11.576;2023-12-28T09:33:25;95474.13;;;15.06;62.40
15444;BME280;7822;48.146;11.576;2023-12-28T09:35:54;95474.13;;;15.06;62.24
15444;BME280;7822;48.146;11.576;2023-12-28T09:38:22;95467.09;;;15.07;62.27
15444;BME280;7822;48.146;11.576;2023-12-28T09:40:50;95469.72;;;15.07;62.23
15444;BME280;7822;48.146;11.576;2023-12-28T09:43:21;95463.66;;;15.06;62.32
15444;BME280;7822;48.146;11.576;2023-12-28T09:45:49;95458.44;;;15.06;62.32
15444;BME280;7822;48.146;11.576;2023-12-28T09:48:17;95460.22;;;15.06;62.32
15444;BME280;7822;48.146;11.576;2023-12-28T09:50:45;95462.00;;;15.05;62.22
15444;BME280;7822;48.146;11.576;2023-12-28T09:53:14;95450.59;;;15.06;62.39
15444;BME280;7822;48.146;11.576;2023-12-28T09:55:42;95447.16;;;15.06;62.28
15444;BME280;7822;48.146;11.576;2023-12-28T09:58:10;95438.50;;;15.05;61.96
15444;BME280;7822;48.146;11.576;2023-12-28T10:00:41;95443.72;;;15.05;62.12
15444;BME280;7822;48.146;11.576;2023-12-28T10:03:11;95451.56;;;15.05;62.50
15444;BME280;7822;48.146;11.576;2023-12-28T10:05:40;95448.09;;;15.05;62.42
15444;BME280;7822;48.146;11.576;2023-12-28T10:08:07;95441.09;;;15.05;62.32
15444;BME280;7822;48.146;11.576;2023-12-28T10:10:36;95445.50;;;15.05;62.50
15444;BME280;7822;48.146;11.576;2023-12-28T10:13:05;95440.28;;;15.05;62.32
15444;BME280;7822;48.146;11.576;2023-12-28T10:15:33;95443.03;;;15.03;62.33
15444;BME280;7822;48.146;11.576;2023-12-28T10:18:01;95447.31;;;15.04;62.41
15444;BME280;7822;48.146;11.576;2023-12-28T10:20:29;95447.31;;;15.04;62.47
15444;BME280;7822;48.146;11.576;2023-12-28T10:22:57;95449.91;;;15.04;62.53
15444;BME280;7822;48.146;11.576;2023-12-28T10:25:25;95451.72;;;15.04;62.57
15444;BME280;7822;48.146;11.576;2023-12-28T10:27:54;95448.09;;;15.05;62.59
15444;BME280;7822;48.146;11.576;2023-12-28T10:30:22;95456.94;;;15.04;62.78
15444;BME280;7822;48.146;11.576;2023-12-28T10:32:50;95444.69;;;15.04;62.71
15444;BME280;7822;48.146;11.576;2023-12-28T10:35:18;95439.47;;;15.04;62.83
15444;BME280;7822;48.146;11.576;2023-12-28T10:37:46;95433.25;;;15.05;62.87
15444;BME280;7822;48.146;11.576;2023-12-28T10:40:17;95426.41;;;15.04;62.79
15444;BME280;7822;48.146;11.576;2023-12-28T10:42:49;95417.59;;;15.05;62.68
15444;BME280;7822;48.146;11.576;2023-12-28T10:45:19;95417.59;;;15.05;62.70
15444;BME280;7822;48.146;11.576;2023-12-28T10:47:52;95420.34;;;15.04;62.67
15444;BME280;7822;48.146;11.576;2023-12-28T10:50:21;95419.53;;;15.03;62.70
15444;BME280;7822;48.146;11.576;2023-12-28T10:52:50;95418.41;;;15.06;62.67
15444;BME280;7822;48.146;11.576;2023-12-28T10:55:24;95427.22;;;15.05;62.90
15444;BME280;7822;48.146;11.576;2023-12-28T10:57:58;95415.97;;;15.04;63.08
15444;BME280;7822;48.146;11.576;2023-12-28T11:00:30;95419.38;;;15.05;62.59
15444;BME280;7822;48.146;11.576;2023-12-28T11:03:01;95414.16;;;15.05;62.89
15444;BME280;7822;48.146;11.576;2023-12-28T11:05:29;95415.13;;;15.04;62.91
15444;BME280;7822;48.146;11.576;2023-12-28T11:07:58;95417.59;;;15.05;63.10
15444;BME280;7822;48.146;11.576;2023-12-28T11:10:26;95406.47;;;15.03;63.04
15444;BME280;7822;48.146;11.576;2023-12-28T11:12:56;95410.72;;;15.04;63.17
15444;BME280;7822;48.146;11.576;2023-12-28T11:15:25;95407.28;;;15.04;62.88
15444;BME280;7822;48.146;11.576;2023-12-28T11:17:54;95402.91;;;15.04;63.01
15444;BME280;7822;48.146;11.576;2023-12-28T11:20:22;95405.50;;;15.04;63.06
15444;BME280;7822;48.146;11.576;2023-12-28T11:22:49;95391.63;;;15.04;63.25
15444;BME280;7822;48.146;11.576;2023-12-28T11:25:18;95398.63;;;15.03;63.15
15444;BME280;7822;48.146;11.576;2023-12-28T11:27:46;95394.22;;;15.04;63.16
15444;BME280;7822;48.146;11.576;2023-12-28T11:30:14;95388.16;;;15.03;63.19
15444;BME280;7822;48.146;11.576;2023-12-28T11:32:42;95388.16;;;15.03;63.38
15444;BME280;7822;48.146;11.576;2023-12-28T11:35:12;95396.00;;;15.03;63.28
15444;BME280;7822;48.146;11.576;2023-12-28T11:37:42;95395.19;;;15.03;63.30
15444;BME280;7822;48.146;11.576;2023-12-28T11:40:11;95391.78;;;15.02;63.46
15444;BME280;7822;48.146;11.576;2023-12-28T11:42:47;95380.50;;;15.02;63.61
15444;BME280;7822;48.146;11.576;2023-12-28T11:45:16;95377.72;;;15.03;63.44
15444;BME280;7822;48.146;11.576;2023-12-28T11:47:43;95382.13;;;15.03;63.18
15444;BME280;7822;48.146;11.576;2023-12-28T11:50:13;95389.97;;;15.03;63.45
15444;BME280;7822;48.146;11.576;2023-12-28T11:52:41;95373.47;;;15.02;63.18
15444;BME280;7822;48.146;11.576;2023-12-28T11:55:10;95385.72;;;15.02;63.31
15444;BME280;7822;48.146;11.576;2023-12-28T11:57:38;95375.25;;;15.02;63.31
15444;BME280;7822;48.146;11.576;2023-12-28T12:00:06;95377.88;;;15.02;63.19
15444;BME280;7822;48.146;11.576;2023-12-28T12:02:34;95378.72;;;15.02;63.23
15444;BME280;7822;48.146;11.576;2023-12-28T12:05:02;95374.44;;;15.01;63.23
15444;BME280;7822;48.146;11.576;2023-12-28T12:07:31;95375.25;;;15.02;63.47
15444;BME280;7822;48.146;11.576;2023-12-28T12:09:59;95371.81;;;15.01;63.44
15444;BME280;7822;48.146;11.576;2023-12-28T12:12:27;95377.88;;;15.02;63.46
15444;BME280;7822;48.146;11.576;2023-12-28T12:14:55;95369.22;;;15.01;63.41
15444;BME280;7822;48.146;11.576;2023-12-28T12:17:23;95371.00;;;15.01;63.49
15444;BME280;7822;48.146;11.576;2023-12-28T12:19:51;95372.66;;;15.02;63.42
15444;BME280;7822;48.146;11.576;2023-12-28T12:22:22;95366.44;;;15.03;63.39
15444;BME280;7822;48.146;11.576;2023-12-28T12:24:55;95363.03;;;15.02;63.45
15444;BME280;7822;48.146;11.576;2023-12-28T12:27:23;95358.59;;;15.03;63.41
15444;BME280;7822;48.146;11.576;2023-12-28T12:29:51;95355.19;;;15.02;63.40
15444;BME280;7822;48.146;11.576;2023-12-28T12:32:19;95356.16;;;15.01;63.40
15444;BME280;7822;48.146;11.576;2023-12-28T12:34:46;95351.75;;;15.02;63.39
15444;BME280;7822;48.146;11.576;2023-12-28T12:37:14;95355.19;;;15.02;63.31
15444;BME280;7822;48.146;11.576;2023-12-28T12:39:42;95350.94;;;15.01;63.53
15444;BME280;7822;48.146;11.576;2023-12-28T12:42:13;95349.13;;;15.02;63.53
15444;BME280;7822;48.146;11.576;2023-12-28T12:44:40;95349.13;;;15.02;63.70
15444;BME280;7822;48.146;11.576;2023-12-28T12:47:08;95349.13;;;15.02;63.55
15444;BME280;7822;48.146;11.576;2023-12-28T12:49:36;95349.97;;;15.02;63.49
15444;BME280;7822;48.146;11.576;2023-12-28T12:52:04;95346.53;;;15.02;63.58
15444;BME280;7822;48.146;11.576;2023-12-28T12:54:34;95349.13;;;15.02;63.66
15444;BME280;7822;48.146;11.576;2023-12-28T12:57:02;95349.13;;;15.02;63.50
15444;BME280;7822;48.146;11.576;2023-12-28T12:59:31;95343.09;;;15.01;63.55
15444;BME280;7822;48.146;11.576;2023-12-28T13:01:59;95343.09;;;15.01;63.61
15444;BME280;7822;48.146;11.576;2023-12-28T13:04:26;95343.09;;;15.01;63.53